Archival Weather

Chicago O'Hare International

Chicago, Illinois (KORD)

Report from: Saturday, March 18, 2023 2:51 AM CDT
Current time: Wednesday, May 29, 2024 3:10 AM CDT

Current weather – Weather history – Daily summaries
Weather forecast

Temperature-7.2°C (19.0°F)
Wind chill-15.5°C (4.0°F)
Dew point-13.9°C (7.0°F)
Winds 15 kts (7.7 m/s, 17.3 mph) West-Northwest (290°)
Wind gusts 22 kts (11.3 m/s, 25.3 mph)
Peak wind 26 kts (13.4 m/s, 29.9 mph) West-Southwest (250°) at 06:58
Visibility10 mi. (16.1 km)
Clouds Scattered clouds 3,400 ft. (1,036 m)
Ceiling: Broken clouds 4,500 ft. (1,372 m)
Altimeter29.89 in.Hg (1012 mB)
Relative humidity59 %
Density altitude-2,712 ft. (-826 m)
Sea-level pressure101.3 kPa (1013 mB, 29.91 in.Hg)
Remarks Automated weather observing station with precipitation discriminator
Flight conditions Visual Meteorological Conditions
Raw dataKORD 180751Z 29015G22KT 10SM SCT034 BKN045 M07/M14 A2989 RMK AO2 PK WND 25026/0658 SLP130 T10721139
An error has occurred. This application may no longer respond until reloaded. Reload 🗙